NEOK1: Neosho R at Neosho Rapids, KS

                                SHEF ID:       NEOK1     NEOSHO R AT NEOSHO RAPIDS, KS
STATION TYPE:

STAGE RIV-FLOW BAT-LOAD
ft cfs volt
Ccp-Rev Ccp-Rev Ccp-Rev
(America/Chicago)
02/22 00:00 8.70 4768 12.37
02/22 01:00 8.69 4760 12.34
02/22 02:00 8.67 4745 12.31
02/22 03:00 8.66 4738 12.28
02/22 04:00 8.64 4722 12.24
02/22 05:00 8.62 4707 12.21
02/22 06:00 8.61 4700 12.17
02/22 07:00 8.58 4677 12.15
02/22 08:00 8.55 4654 12.34
02/22 09:00 8.55 4654 13.50
02/22 10:00 8.53 4639 13.46
02/22 11:00 8.50 4616 13.31
02/22 12:00 8.49 4609 13.22
02/22 13:00 8.45 4579 13.13
02/22 14:00 8.45 4579 13.07
02/22 15:00 8.43 4564 13.03
02/22 16:00 8.41 4549 12.99
02/22 17:00 8.40 4541 ----
02/22 18:00 8.39 4534 12.83
02/22 19:00 8.38 4526 12.54
02/22 20:00 8.38 4526 12.48
02/22 21:00 8.38 4526 12.43
02/22 22:00 8.38 4526 12.40
02/22 23:00 8.38 4526 12.37
Data processed at Mon 23Feb2026 05:36 GMT

NOTICE: If you are parsing this page

Please convert to using our Data API. Starting early 2026 we will be migrating to: https://water.usace.army.mil with modern pages rendered in JavaScript. When this migration completes you will no longer be able to scrape this page! CWMSDataAPI (CDA)

Timeseries IDs (TSIDs)

TSIDs used from left to right in the data table
NEOR.Stage.Inst.1Hour.0.Ccp-Rev
NEOR.Flow.Inst.1Hour.0.Ccp-Rev
NEOR.Volt-Battery Load.Inst.1Hour.0.Ccp-Rev

                            

All information presented herein is the property of the government of the United States of America and may be revised or deleted at any time without prior notice. Dissemination of this information without the expressed written consent of the Public Affairs Office, Tulsa District U.S. Army Corps of Engineers is strictly prohibited. These data are gathered electronically and, as presented, have NOT undergone any form of quality control. These data are NOT guaranteed to be valid or correct.